Wawasan Ruby — 3EVU7 — position and weather

sailwx.info

Track history (hours):
 
Tides and Currents Weather Stations Pressure Air Temp Water Temp Dewpoint Dewpoint Depression Visibility Wind Speed Wind Dir Waves Ship Positions

Wawasan Ruby

Last reported at 2016-Jul-28 12:15 UTC. Time now 2016-Jul-30 20:41 UTC.
Position N 22°38' E 117°18'.

Length 146 m; draft 9.8 m.

Type: Tanker. MMSI: 355619000.

Date/timePositionNaut miles runAvg speedWind from/ knotsBaromVisibWave heightAir tempDewpointWater temp
2016-Jul-28 12:15N 22°38' E 117°18'  
2016-Jul-23 16:06N 01°16' E 104°10'812.2
2016-Jul-23 15:27N 01°15' E 104°02'1112.1
2016-Jul-23 14:33N 01°11' E 103°52'13 3.1
2016-Jul-23 10:32N 01°18' E 103°41'0 0.1
2016-Jul-23 09:31N 01°18' E 103°41'0 0.0
2016-Jul-23 08:31N 01°18' E 103°41'0 0.0
2016-Jul-23 07:31N 01°18' E 103°41'0 0.0
2016-Jul-23 06:13N 01°18' E 103°41'0 0.0
2016-Jul-23 04:31N 01°18' E 103°41'0 0.0
2016-Jul-23 03:31N 01°18' E 103°41'0 0.0
2016-Jul-23 02:31N 01°18' E 103°41'0 0.0
2016-Jul-23 01:31N 01°18' E 103°41'0 0.0
2016-Jul-23 00:25N 01°18' E 103°41'0 0.0
2016-Jul-22 23:31N 01°18' E 103°41'0 0.0
2016-Jul-22 22:31N 01°18' E 103°41'0 0.0
2016-Jul-22 21:31N 01°18' E 103°41'0 0.0
2016-Jul-22 20:31N 01°18' E 103°41'0 0.0
2016-Jul-22 19:13N 01°18' E 103°41'0 0.0
2016-Jul-22 18:31N 01°18' E 103°41'0 0.0
2016-Jul-22 17:31N 01°18' E 103°41'0 0.0
2016-Jul-22 16:31N 01°18' E 103°41'0 0.0
2016-Jul-22 15:31N 01°18' E 103°41'0 0.0
2016-Jul-22 14:31N 01°18' E 103°41'0 0.0
2016-Jul-22 13:25N 01°18' E 103°41'0 0.0
2016-Jul-22 12:31N 01°18' E 103°41'0 0.0
2016-Jul-22 11:25N 01°18' E 103°41'0 0.0
2016-Jul-22 10:31N 01°18' E 103°41'0 0.1
2016-Jul-22 09:31N 01°18' E 103°41'0 0.1
2016-Jul-22 08:31N 01°18' E 103°41'0 0.0
2016-Jul-22 07:31N 01°18' E 103°41'0 0.0
2016-Jul-22 04:25N 01°18' E 103°41'0 0.0
2016-Jul-22 03:25N 01°18' E 103°41'0 0.0
2016-Jul-22 02:31N 01°18' E 103°41'0 0.1
2016-Jul-22 01:31N 01°18' E 103°41'0 0.0
2016-Jul-22 00:31N 01°18' E 103°41'0 0.1
2016-Jul-21 23:31N 01°18' E 103°41'0 0.0
2016-Jul-21 22:31N 01°18' E 103°41'0 0.1
2016-Jul-21 21:31N 01°18' E 103°41'0 0.0
2016-Jul-21 20:31N 01°18' E 103°41'0 0.1
2016-Jul-21 19:31N 01°18' E 103°41'0 0.0
2016-Jul-21 18:31N 01°18' E 103°41'0 0.0
2016-Jul-21 17:31N 01°18' E 103°41'0 0.0
2016-Jul-21 16:25N 01°18' E 103°41'0 0.0
2016-Jul-21 15:31N 01°18' E 103°41'0 0.0
2016-Jul-21 14:25N 01°18' E 103°41'0 0.5
2016-Jul-21 13:33N 01°18' E 103°41'4 0.3
2016-Jul-21 00:12N 01°14' E 103°39'0 0.0
2016-Jul-20 23:18N 01°14' E 103°39'0 0.0
2016-Jul-20 22:18N 01°14' E 103°39'0 0.0
2016-Jul-20 21:18N 01°14' E 103°39'0 0.0
2016-Jul-20 03:12N 01°14' E 103°39'0 0.0
2016-Jul-20 02:18N 01°14' E 103°39'0 0.0
2016-Jul-20 00:33N 01°14' E 103°39'3 2.8
2016-Jul-19 23:33N 01°12' E 103°40'7 6.6
2016-Jul-19 22:33N 01°10' E 103°46'8 8.1
2016-Jul-19 21:33N 01°13' E 103°54'9 8.6
2016-Jul-19 20:32N 01°16' E 104°02'  
Track history (hours):
 
Tides and Currents Weather Stations Pressure Air Temp Water Temp Dewpoint Dewpoint Depression Visibility Wind Speed Wind Dir Waves Ship Positions

Wawasan Ruby

Last reported at 2016-Jul-28 12:15 UTC. Time now 2016-Jul-30 20:41 UTC.
Position N 22°38' E 117°18'.

Length 146 m; draft 9.8 m.

Type: Tanker. MMSI: 355619000.

Date/timePositionNaut miles runAvg speedWind from/ knotsBaromVisibWave heightAir tempDewpointWater temp
2016-Jul-28 12:15N 22°38' E 117°18'  
2016-Jul-23 16:06N 01°16' E 104°10'812.2
2016-Jul-23 15:27N 01°15' E 104°02'1112.1
2016-Jul-23 14:33N 01°11' E 103°52'13 3.1
2016-Jul-23 10:32N 01°18' E 103°41'0 0.1
2016-Jul-23 09:31N 01°18' E 103°41'0 0.0
2016-Jul-23 08:31N 01°18' E 103°41'0 0.0
2016-Jul-23 07:31N 01°18' E 103°41'0 0.0
2016-Jul-23 06:13N 01°18' E 103°41'0 0.0
2016-Jul-23 04:31N 01°18' E 103°41'0 0.0
2016-Jul-23 03:31N 01°18' E 103°41'0 0.0
2016-Jul-23 02:31N 01°18' E 103°41'0 0.0
2016-Jul-23 01:31N 01°18' E 103°41'0 0.0
2016-Jul-23 00:25N 01°18' E 103°41'0 0.0
2016-Jul-22 23:31N 01°18' E 103°41'0 0.0
2016-Jul-22 22:31N 01°18' E 103°41'0 0.0
2016-Jul-22 21:31N 01°18' E 103°41'0 0.0
2016-Jul-22 20:31N 01°18' E 103°41'0 0.0
2016-Jul-22 19:13N 01°18' E 103°41'0 0.0
2016-Jul-22 18:31N 01°18' E 103°41'0 0.0
2016-Jul-22 17:31N 01°18' E 103°41'0 0.0
2016-Jul-22 16:31N 01°18' E 103°41'0 0.0
2016-Jul-22 15:31N 01°18' E 103°41'0 0.0
2016-Jul-22 14:31N 01°18' E 103°41'0 0.0
2016-Jul-22 13:25N 01°18' E 103°41'0 0.0
2016-Jul-22 12:31N 01°18' E 103°41'0 0.0
2016-Jul-22 11:25N 01°18' E 103°41'0 0.0
2016-Jul-22 10:31N 01°18' E 103°41'0 0.1
2016-Jul-22 09:31N 01°18' E 103°41'0 0.1
2016-Jul-22 08:31N 01°18' E 103°41'0 0.0
2016-Jul-22 07:31N 01°18' E 103°41'0 0.0
2016-Jul-22 04:25N 01°18' E 103°41'0 0.0
2016-Jul-22 03:25N 01°18' E 103°41'0 0.0
2016-Jul-22 02:31N 01°18' E 103°41'0 0.1
2016-Jul-22 01:31N 01°18' E 103°41'0 0.0
2016-Jul-22 00:31N 01°18' E 103°41'0 0.1
2016-Jul-21 23:31N 01°18' E 103°41'0 0.0
2016-Jul-21 22:31N 01°18' E 103°41'0 0.1
2016-Jul-21 21:31N 01°18' E 103°41'0 0.0
2016-Jul-21 20:31N 01°18' E 103°41'0 0.1
2016-Jul-21 19:31N 01°18' E 103°41'0 0.0
2016-Jul-21 18:31N 01°18' E 103°41'0 0.0
2016-Jul-21 17:31N 01°18' E 103°41'0 0.0
2016-Jul-21 16:25N 01°18' E 103°41'0 0.0
2016-Jul-21 15:31N 01°18' E 103°41'0 0.0
2016-Jul-21 14:25N 01°18' E 103°41'0 0.5
2016-Jul-21 13:33N 01°18' E 103°41'4 0.3
2016-Jul-21 00:12N 01°14' E 103°39'0 0.0
2016-Jul-20 23:18N 01°14' E 103°39'0 0.0
2016-Jul-20 22:18N 01°14' E 103°39'0 0.0
2016-Jul-20 21:18N 01°14' E 103°39'0 0.0
2016-Jul-20 03:12N 01°14' E 103°39'0 0.0
2016-Jul-20 02:18N 01°14' E 103°39'0 0.0
2016-Jul-20 00:33N 01°14' E 103°39'3 2.8
2016-Jul-19 23:33N 01°12' E 103°40'7 6.6
2016-Jul-19 22:33N 01°10' E 103°46'8 8.1
2016-Jul-19 21:33N 01°13' E 103°54'9 8.6
2016-Jul-19 20:32N 01°16' E 104°02'  

Dump ship's entire track history